sensor_id;sensor_type;location;lat;lon;timestamp;pressure;altitude;pressure_sealevel;temperature;humidity
55263;BME280;41125;48.752;9.168;2022-09-09T00:00:18;96561.47;;;15.12;63.43
55263;BME280;41125;48.752;9.168;2022-09-09T00:00:55;96563.72;;;15.10;63.75
55263;BME280;41125;48.752;9.168;2022-09-09T00:02:27;96566.13;;;15.12;63.85
55263;BME280;41125;48.752;9.168;2022-09-09T00:03:18;96563.84;;;15.22;63.49
55263;BME280;41125;48.752;9.168;2022-09-09T00:03:54;96564.97;;;15.21;63.32
55263;BME280;41125;48.752;9.168;2022-09-09T00:04:29;96566.56;;;15.22;63.37
55263;BME280;41125;48.752;9.168;2022-09-09T00:06:07;96553.81;;;15.26;63.27
55263;BME280;41125;48.752;9.168;2022-09-09T00:07:45;96559.69;;;15.16;63.52
55263;BME280;41125;48.752;9.168;2022-09-09T00:08:19;96556.28;;;15.19;63.48
55263;BME280;41125;48.752;9.168;2022-09-09T00:08:53;96559.50;;;15.21;63.21
55263;BME280;41125;48.752;9.168;2022-09-09T00:09:29;96551.94;;;15.18;63.62
55263;BME280;41125;48.752;9.168;2022-09-09T00:10:25;96557.59;;;15.13;63.49
55263;BME280;41125;48.752;9.168;2022-09-09T00:10:59;96550.06;;;15.10;63.62
55263;BME280;41125;48.752;9.168;2022-09-09T00:11:42;96549.25;;;15.09;63.67
55263;BME280;41125;48.752;9.168;2022-09-09T00:13:22;96544.41;;;15.15;63.48
55263;BME280;41125;48.752;9.168;2022-09-09T00:13:58;96556.16;;;15.16;63.25
55263;BME280;41125;48.752;9.168;2022-09-09T00:15:36;96548.00;;;15.07;63.81
55263;BME280;41125;48.752;9.168;2022-09-09T00:16:12;96553.44;;;15.07;63.69
55263;BME280;41125;48.752;9.168;2022-09-09T00:16:48;96550.25;;;15.05;63.76
55263;BME280;41125;48.752;9.168;2022-09-09T00:18:23;96552.19;;;15.04;63.73
55263;BME280;41125;48.752;9.168;2022-09-09T00:19:06;96548.16;;;15.02;64.14
55263;BME280;41125;48.752;9.168;2022-09-09T00:19:52;96539.97;;;15.02;64.26
55263;BME280;41125;48.752;9.168;2022-09-09T00:20:32;96550.91;;;15.02;64.01
55263;BME280;41125;48.752;9.168;2022-09-09T00:21:05;96553.97;;;15.00;64.12
55263;BME280;41125;48.752;9.168;2022-09-09T00:21:39;96553.16;;;15.00;64.01
55263;BME280;41125;48.752;9.168;2022-09-09T00:22:15;96546.91;;;14.99;64.21
55263;BME280;41125;48.752;9.168;2022-09-09T00:22:54;96550.91;;;15.02;64.02
55263;BME280;41125;48.752;9.168;2022-09-09T00:23:35;96556.66;;;15.09;63.86
55263;BME280;41125;48.752;9.168;2022-09-09T00:24:14;96554.53;;;15.15;63.69
55263;BME280;41125;48.752;9.168;2022-09-09T00:24:51;96553.28;;;15.12;63.91
55263;BME280;41125;48.752;9.168;2022-09-09T00:25:27;96549.72;;;15.12;63.63
55263;BME280;41125;48.752;9.168;2022-09-09T00:26:08;96551.19;;;15.09;63.98
55263;BME280;41125;48.752;9.168;2022-09-09T00:26:42;96548.31;;;15.05;63.97
55263;BME280;41125;48.752;9.168;2022-09-09T00:28:18;96549.59;;;15.08;63.94
55263;BME280;41125;48.752;9.168;2022-09-09T00:29:45;96548.59;;;15.13;63.69
55263;BME280;41125;48.752;9.168;2022-09-09T00:30:22;96551.66;;;15.11;63.95
55263;BME280;41125;48.752;9.168;2022-09-09T00:30:54;96542.81;;;15.14;63.88
55263;BME280;41125;48.752;9.168;2022-09-09T00:31:28;96544.41;;;15.15;63.46
55263;BME280;41125;48.752;9.168;2022-09-09T00:32:00;96547.63;;;15.17;63.36
55263;BME280;41125;48.752;9.168;2022-09-09T00:32:35;96551.81;;;15.15;63.24
55263;BME280;41125;48.752;9.168;2022-09-09T00:33:10;96545.06;;;15.12;63.52
55263;BME280;41125;48.752;9.168;2022-09-09T00:33:45;96553.28;;;15.12;63.40
55263;BME280;41125;48.752;9.168;2022-09-09T00:34:23;96551.19;;;15.09;63.58
55263;BME280;41125;48.752;9.168;2022-09-09T00:35:01;96552.78;;;15.10;63.89
55263;BME280;41125;48.752;9.168;2022-09-09T00:35:34;96556.66;;;15.09;63.54
55263;BME280;41125;48.752;9.168;2022-09-09T00:36:09;96548.00;;;15.07;63.85
55263;BME280;41125;48.752;9.168;2022-09-09T00:36:42;96545.41;;;15.11;63.37
55263;BME280;41125;48.752;9.168;2022-09-09T00:37:15;96548.94;;;15.11;63.67
55263;BME280;41125;48.752;9.168;2022-09-09T00:37:47;96544.41;;;15.15;63.14
55263;BME280;41125;48.752;9.168;2022-09-09T00:38:22;96549.88;;;15.15;63.31
55263;BME280;41125;48.752;9.168;2022-09-09T00:38:59;96550.53;;;15.12;63.51
55263;BME280;41125;48.752;9.168;2022-09-09T00:39:37;96543.47;;;15.11;63.76
55263;BME280;41125;48.752;9.168;2022-09-09T00:40:22;96545.34;;;15.19;62.86
55263;BME280;41125;48.752;9.168;2022-09-09T00:42:02;96544.88;;;15.17;62.82
55263;BME280;41125;48.752;9.168;2022-09-09T00:42:42;96542.47;;;15.16;63.10
55263;BME280;41125;48.752;9.168;2022-09-09T00:43:32;96538.94;;;15.15;63.19
55263;BME280;41125;48.752;9.168;2022-09-09T00:45:15;96546.00;;;15.16;63.50
55263;BME280;41125;48.752;9.168;2022-09-09T00:46:48;96546.00;;;15.16;63.50
55263;BME280;41125;48.752;9.168;2022-09-09T00:48:16;96544.88;;;15.17;63.05
55263;BME280;41125;48.752;9.168;2022-09-09T00:50:45;96549.69;;;15.20;63.61
55263;BME280;41125;48.752;9.168;2022-09-09T00:51:25;96558.69;;;15.21;63.63
55263;BME280;41125;48.752;9.168;2022-09-09T00:54:13;96552.69;;;15.27;62.71
55263;BME280;41125;48.752;9.168;2022-09-09T00:54:55;96559.75;;;15.28;62.87
55263;BME280;41125;48.752;9.168;2022-09-09T00:55:42;96558.16;;;15.27;63.13
55263;BME280;41125;48.752;9.168;2022-09-09T00:56:18;96556.53;;;15.26;63.04
55263;BME280;41125;48.752;9.168;2022-09-09T00:57:46;96554.94;;;15.25;63.51
55263;BME280;41125;48.752;9.168;2022-09-09T00:58:22;96558.16;;;15.27;63.09
55263;BME280;41125;48.752;9.168;2022-09-09T00:59:51;96555.41;;;15.27;63.08
55263;BME280;41125;48.752;9.168;2022-09-09T01:00:27;96556.53;;;15.26;63.07
55263;BME280;41125;48.752;9.168;2022-09-09T01:01:05;96554.94;;;15.25;63.23
55263;BME280;41125;48.752;9.168;2022-09-09T01:01:39;96556.53;;;15.26;63.19
55263;BME280;41125;48.752;9.168;2022-09-09T01:02:13;96560.88;;;15.27;62.77
55263;BME280;41125;48.752;9.168;2022-09-09T01:03:46;96552.03;;;15.30;62.64
55263;BME280;41125;48.752;9.168;2022-09-09T01:04:21;96556.69;;;15.30;62.86
55263;BME280;41125;48.752;9.168;2022-09-09T01:05:05;96558.63;;;15.29;62.78
55263;BME280;41125;48.752;9.168;2022-09-09T01:05:53;96558.63;;;15.29;62.94
55263;BME280;41125;48.752;9.168;2022-09-09T01:06:30;96549.75;;;15.32;62.61
55263;BME280;41125;48.752;9.168;2022-09-09T01:07:16;96547.50;;;15.34;62.46
55263;BME280;41125;48.752;9.168;2022-09-09T01:07:50;96543.09;;;15.42;62.05
55263;BME280;41125;48.752;9.168;2022-09-09T01:08:36;96548.09;;;15.40;62.04
55263;BME280;41125;48.752;9.168;2022-09-09T01:09:21;96544.75;;;15.34;62.34
55263;BME280;41125;48.752;9.168;2022-09-09T01:09:58;96537.03;;;15.36;62.38
55263;BME280;41125;48.752;9.168;2022-09-09T01:10:39;96542.03;;;15.34;62.39
55263;BME280;41125;48.752;9.168;2022-09-09T01:11:22;96542.03;;;15.34;62.44
55263;BME280;41125;48.752;9.168;2022-09-09T01:12:01;96541.56;;;15.32;62.32
55263;BME280;41125;48.752;9.168;2022-09-09T01:12:43;96539.47;;;15.29;62.55
55263;BME280;41125;48.752;9.168;2022-09-09T01:13:16;96537.09;;;15.28;62.45
55263;BME280;41125;48.752;9.168;2022-09-09T01:14:00;96540.63;;;15.28;62.38
55263;BME280;41125;48.752;9.168;2022-09-09T01:14:51;96541.75;;;15.27;62.70
55263;BME280;41125;48.752;9.168;2022-09-09T01:15:30;96537.88;;;15.28;62.82
55263;BME280;41125;48.752;9.168;2022-09-09T01:16:03;96538.81;;;15.32;62.61
55263;BME280;41125;48.752;9.168;2022-09-09T01:16:34;96539.97;;;15.31;62.60
55263;BME280;41125;48.752;9.168;2022-09-09T01:17:13;96538.81;;;15.32;62.66
55263;BME280;41125;48.752;9.168;2022-09-09T01:17:53;96534.97;;;15.33;62.21
55263;BME280;41125;48.752;9.168;2022-09-09T01:18:35;96541.56;;;15.32;62.24
55263;BME280;41125;48.752;9.168;2022-09-09T01:19:07;96531.22;;;15.38;62.45
55263;BME280;41125;48.752;9.168;2022-09-09T01:20:02;96537.97;;;15.40;62.24
55263;BME280;41125;48.752;9.168;2022-09-09T01:20:51;96540.22;;;15.38;62.32
55263;BME280;41125;48.752;9.168;2022-09-09T01:21:30;96544.75;;;15.34;62.65
55263;BME280;41125;48.752;9.168;2022-09-09T01:22:06;96553.16;;;15.29;62.39
55263;BME280;41125;48.752;9.168;2022-09-09T01:24:38;96562.69;;;15.23;63.39
55263;BME280;41125;48.752;9.168;2022-09-09T01:25:18;96561.09;;;15.22;62.99
55263;BME280;41125;48.752;9.168;2022-09-09T01:26:47;96557.69;;;15.25;62.64
55263;BME280;41125;48.752;9.168;2022-09-09T01:27:18;96564.75;;;15.26;62.80
55263;BME280;41125;48.752;9.168;2022-09-09T01:27:52;96563.63;;;15.27;62.65
55263;BME280;41125;48.752;9.168;2022-09-09T01:28:25;96566.00;;;15.29;62.67
55263;BME280;41125;48.752;9.168;2022-09-09T01:29:00;96564.09;;;15.29;62.58
55263;BME280;41125;48.752;9.168;2022-09-09T01:29:31;96557.97;;;15.32;62.59
55263;BME280;41125;48.752;9.168;2022-09-09T01:30:10;96565.69;;;15.30;62.66
55263;BME280;41125;48.752;9.168;2022-09-09T01:30:42;96566.81;;;15.29;62.44
55263;BME280;41125;48.752;9.168;2022-09-09T01:31:15;96560.69;;;15.32;62.61
55263;BME280;41125;48.752;9.168;2022-09-09T01:32:45;96572.50;;;15.24;62.62
55263;BME280;41125;48.752;9.168;2022-09-09T01:33:17;96568.16;;;15.23;62.79
55263;BME280;41125;48.752;9.168;2022-09-09T01:33:48;96576.38;;;15.23;62.66
55263;BME280;41125;48.752;9.168;2022-09-09T01:34:23;96565.53;;;15.27;62.79
55263;BME280;41125;48.752;9.168;2022-09-09T01:34:54;96571.63;;;15.32;62.37
55263;BME280;41125;48.752;9.168;2022-09-09T01:35:39;96572.28;;;15.29;62.61
55263;BME280;41125;48.752;9.168;2022-09-09T01:36:24;96570.69;;;15.28;62.53
55263;BME280;41125;48.752;9.168;2022-09-09T01:37:46;96568.16;;;15.23;63.15
55263;BME280;41125;48.752;9.168;2022-09-09T01:38:16;96563.84;;;15.22;63.32
55263;BME280;41125;48.752;9.168;2022-09-09T01:38:48;96566.56;;;15.22;63.11
55263;BME280;41125;48.752;9.168;2022-09-09T01:39:19;96568.81;;;15.20;63.32
55263;BME280;41125;48.752;9.168;2022-09-09T01:39:51;96564.50;;;15.19;63.08
55263;BME280;41125;48.752;9.168;2022-09-09T01:40:21;96564.97;;;15.21;63.15
55263;BME280;41125;48.752;9.168;2022-09-09T01:40:52;96562.69;;;15.23;62.95
55263;BME280;41125;48.752;9.168;2022-09-09T01:41:24;96562.34;;;15.25;62.94
55263;BME280;41125;48.752;9.168;2022-09-09T01:41:55;96558.84;;;15.24;62.92
55263;BME280;41125;48.752;9.168;2022-09-09T01:42:26;96561.56;;;15.24;63.06
55263;BME280;41125;48.752;9.168;2022-09-09T01:42:57;96556.87;;;15.25;62.88
55263;BME280;41125;48.752;9.168;2022-09-09T01:43:28;96556.44;;;15.23;63.11
55263;BME280;41125;48.752;9.168;2022-09-09T01:43:59;96557.56;;;15.22;62.83
55263;BME280;41125;48.752;9.168;2022-09-09T01:44:30;96559.50;;;15.21;63.08
55263;BME280;41125;48.752;9.168;2022-09-09T01:45:01;96562.56;;;15.20;63.21
55263;BME280;41125;48.752;9.168;2022-09-09T01:45:32;96559.81;;;15.20;63.59
55263;BME280;41125;48.752;9.168;2022-09-09T01:46:08;96565.28;;;15.20;63.40
55263;BME280;41125;48.752;9.168;2022-09-09T01:46:40;96561.75;;;15.19;63.74
55263;BME280;41125;48.752;9.168;2022-09-09T01:47:14;96559.03;;;15.19;63.71
55263;BME280;41125;48.752;9.168;2022-09-09T01:47:48;96557.88;;;15.20;63.88
55263;BME280;41125;48.752;9.168;2022-09-09T01:48:19;96561.75;;;15.19;63.72
55263;BME280;41125;48.752;9.168;2022-09-09T01:48:51;96564.81;;;15.18;64.02
55263;BME280;41125;48.752;9.168;2022-09-09T01:49:23;96561.28;;;15.17;63.83
55263;BME280;41125;48.752;9.168;2022-09-09T01:49:54;96561.28;;;15.17;63.89
55263;BME280;41125;48.752;9.168;2022-09-09T01:50:25;96563.22;;;15.17;64.08
55263;BME280;41125;48.752;9.168;2022-09-09T01:50:55;96550.69;;;15.16;64.28
55263;BME280;41125;48.752;9.168;2022-09-09T01:51:26;96551.47;;;15.16;63.91
55263;BME280;41125;48.752;9.168;2022-09-09T01:51:57;96556.94;;;15.16;63.68
55263;BME280;41125;48.752;9.168;2022-09-09T01:52:29;96561.59;;;15.16;63.64
55263;BME280;41125;48.752;9.168;2022-09-09T01:53:00;96555.34;;;15.15;63.88
55263;BME280;41125;48.752;9.168;2022-09-09T01:53:32;96557.59;;;15.13;63.75
55263;BME280;41125;48.752;9.168;2022-09-09T01:54:03;96557.59;;;15.13;64.14
55263;BME280;41125;48.752;9.168;2022-09-09T01:54:34;96560.34;;;15.13;63.81
55263;BME280;41125;48.752;9.168;2022-09-09T01:55:06;96553.75;;;15.14;64.21
55263;BME280;41125;48.752;9.168;2022-09-09T01:55:38;96554.53;;;15.15;63.92
55263;BME280;41125;48.752;9.168;2022-09-09T01:56:21;96553.09;;;15.17;64.21
55263;BME280;41125;48.752;9.168;2022-09-09T01:57:00;96553.69;;;15.23;63.54
55263;BME280;41125;48.752;9.168;2022-09-09T01:58:50;96558.84;;;15.24;63.63
55263;BME280;41125;48.752;9.168;2022-09-09T02:00:13;96559.28;;;15.26;63.65
55263;BME280;41125;48.752;9.168;2022-09-09T02:00:49;96551.06;;;15.26;63.84
55263;BME280;41125;48.752;9.168;2022-09-09T02:02:13;96552.03;;;15.30;63.66
55263;BME280;41125;48.752;9.168;2022-09-09T02:02:57;96548.97;;;15.32;63.55
55263;BME280;41125;48.752;9.168;2022-09-09T02:03:31;96545.91;;;15.33;63.60
55263;BME280;41125;48.752;9.168;2022-09-09T02:04:08;96543.63;;;15.35;63.03
55263;BME280;41125;48.752;9.168;2022-09-09T02:05:39;96540.72;;;15.40;62.96
55263;BME280;41125;48.752;9.168;2022-09-09T02:06:24;96543.91;;;15.42;62.78
55263;BME280;41125;48.752;9.168;2022-09-09T02:06:56;96550.31;;;15.47;62.55
55263;BME280;41125;48.752;9.168;2022-09-09T02:07:33;96549.97;;;15.57;61.86
55263;BME280;41125;48.752;9.168;2022-09-09T02:08:09;96550.53;;;15.62;61.43
55263;BME280;41125;48.752;9.168;2022-09-09T02:08:47;96558.75;;;15.62;61.84
55263;BME280;41125;48.752;9.168;2022-09-09T02:09:21;96561.81;;;15.61;61.60
55263;BME280;41125;48.752;9.168;2022-09-09T02:10:16;96550.53;;;15.62;61.69
55263;BME280;41125;48.752;9.168;2022-09-09T02:11:36;96560.91;;;15.57;62.71
55263;BME280;41125;48.752;9.168;2022-09-09T02:12:08;96556.22;;;15.57;62.40
55263;BME280;41125;48.752;9.168;2022-09-09T02:12:44;96555.91;;;15.59;61.80
55263;BME280;41125;48.752;9.168;2022-09-09T02:13:18;96552.47;;;15.62;61.47
55263;BME280;41125;48.752;9.168;2022-09-09T02:13:51;96556.47;;;15.64;61.87
55263;BME280;41125;48.752;9.168;2022-09-09T02:14:24;96554.06;;;15.63;61.66
55263;BME280;41125;48.752;9.168;2022-09-09T02:14:59;96553.59;;;15.61;62.69
55263;BME280;41125;48.752;9.168;2022-09-09T02:17:15;96558.19;;;15.48;62.90
55263;BME280;41125;48.752;9.168;2022-09-09T02:17:50;96560.78;;;15.45;63.52
55263;BME280;41125;48.752;9.168;2022-09-09T02:18:24;96561.13;;;15.43;63.26
55263;BME280;41125;48.752;9.168;2022-09-09T02:19:49;96566.44;;;15.39;63.29
55263;BME280;41125;48.752;9.168;2022-09-09T02:20:23;96567.09;;;15.36;63.25
55263;BME280;41125;48.752;9.168;2022-09-09T02:20:54;96558.09;;;15.36;63.61
55263;BME280;41125;48.752;9.168;2022-09-09T02:21:31;96552.97;;;15.34;63.73
55263;BME280;41125;48.752;9.168;2022-09-09T02:22:04;96552.16;;;15.34;63.22
55263;BME280;41125;48.752;9.168;2022-09-09T02:22:35;96552.81;;;15.31;63.50
55263;BME280;41125;48.752;9.168;2022-09-09T02:23:10;96552.69;;;15.27;63.73
55263;BME280;41125;48.752;9.168;2022-09-09T02:23:42;96554.13;;;15.25;63.78
55263;BME280;41125;48.752;9.168;2022-09-09T02:24:14;96557.22;;;15.23;63.92
55263;BME280;41125;48.752;9.168;2022-09-09T02:24:46;96553.38;;;15.24;64.02
55263;BME280;41125;48.752;9.168;2022-09-09T02:25:18;96559.16;;;15.23;63.85
55263;BME280;41125;48.752;9.168;2022-09-09T02:25:50;96554.03;;;15.21;64.06
55263;BME280;41125;48.752;9.168;2022-09-09T02:26:23;96553.56;;;15.19;64.40
55263;BME280;41125;48.752;9.168;2022-09-09T02:26:55;96557.41;;;15.18;64.61
55263;BME280;41125;48.752;9.168;2022-09-09T02:27:29;96553.88;;;15.18;64.51
55263;BME280;41125;48.752;9.168;2022-09-09T02:28:00;96551.47;;;15.16;64.71
55263;BME280;41125;48.752;9.168;2022-09-09T02:28:33;96553.41;;;15.16;64.40
55263;BME280;41125;48.752;9.168;2022-09-09T02:29:07;96561.59;;;15.16;64.47
55263;BME280;41125;48.752;9.168;2022-09-09T02:29:40;96557.28;;;15.15;64.65
55263;BME280;41125;48.752;9.168;2022-09-09T02:30:12;96557.59;;;15.13;64.74
55263;BME280;41125;48.752;9.168;2022-09-09T02:30:43;96561.47;;;15.12;64.77
55263;BME280;41125;48.752;9.168;2022-09-09T02:31:17;96561.47;;;15.12;64.96
55263;BME280;41125;48.752;9.168;2022-09-09T02:31:50;96563.06;;;15.13;64.85
55263;BME280;41125;48.752;9.168;2022-09-09T02:32:24;96565.81;;;15.13;65.12
55263;BME280;41125;48.752;9.168;2022-09-09T02:32:56;96565.31;;;15.11;65.55
55263;BME280;41125;48.752;9.168;2022-09-09T02:33:30;96562.94;;;15.09;65.03
55263;BME280;41125;48.752;9.168;2022-09-09T02:34:05;96573.53;;;15.11;64.96
55263;BME280;41125;48.752;9.168;2022-09-09T02:34:40;96565.31;;;15.11;65.23
55263;BME280;41125;48.752;9.168;2022-09-09T02:35:15;96562.59;;;15.11;65.12
55263;BME280;41125;48.752;9.168;2022-09-09T02:35:48;96565.81;;;15.13;65.18
55263;BME280;41125;48.752;9.168;2022-09-09T02:36:20;96572.41;;;15.12;64.82
55263;BME280;41125;48.752;9.168;2022-09-09T02:36:53;96566.13;;;15.12;65.12
55263;BME280;41125;48.752;9.168;2022-09-09T02:37:27;96561.47;;;15.12;64.84
55263;BME280;41125;48.752;9.168;2022-09-09T02:38:01;96566.94;;;15.12;64.90
55263;BME280;41125;48.752;9.168;2022-09-09T02:38:35;96564.19;;;15.12;65.02
55263;BME280;41125;48.752;9.168;2022-09-09T02:39:10;96568.06;;;15.11;64.88
55263;BME280;41125;48.752;9.168;2022-09-09T02:39:41;96574.00;;;15.13;64.63
55263;BME280;41125;48.752;9.168;2022-09-09T02:40:12;96565.31;;;15.11;64.71
55263;BME280;41125;48.752;9.168;2022-09-09T02:40:45;96567.59;;;15.09;65.17
55263;BME280;41125;48.752;9.168;2022-09-09T02:41:17;96561.31;;;15.08;65.05
55263;BME280;41125;48.752;9.168;2022-09-09T02:41:49;96568.38;;;15.09;64.90
55263;BME280;41125;48.752;9.168;2022-09-09T02:42:20;96571.44;;;15.08;65.12
55263;BME280;41125;48.752;9.168;2022-09-09T02:42:51;96565.97;;;15.08;65.02
55263;BME280;41125;48.752;9.168;2022-09-09T02:43:24;96567.12;;;15.07;65.09
55263;BME280;41125;48.752;9.168;2022-09-09T02:43:55;96566.31;;;15.06;65.15
55263;BME280;41125;48.752;9.168;2022-09-09T02:44:27;96556.19;;;15.07;65.43
55263;BME280;41125;48.752;9.168;2022-09-09T02:44:59;96556.66;;;15.09;64.83
55263;BME280;41125;48.752;9.168;2022-09-09T02:45:41;96551.19;;;15.09;64.94
55263;BME280;41125;48.752;9.168;2022-09-09T02:48:17;96552.12;;;15.13;64.78
55263;BME280;41125;48.752;9.168;2022-09-09T02:49:03;96550.69;;;15.16;64.42
55263;BME280;41125;48.752;9.168;2022-09-09T02:49:57;96556.44;;;15.23;63.87
55263;BME280;41125;48.752;9.168;2022-09-09T02:50:33;96557.22;;;15.23;64.13
55263;BME280;41125;48.752;9.168;2022-09-09T02:51:08;96544.22;;;15.20;64.60
55263;BME280;41125;48.752;9.168;2022-09-09T02:52:42;96556.94;;;15.16;64.40
55263;BME280;41125;48.752;9.168;2022-09-09T02:53:19;96553.88;;;15.18;64.63
55263;BME280;41125;48.752;9.168;2022-09-09T02:53:58;96550.34;;;15.17;64.33
55263;BME280;41125;48.752;9.168;2022-09-09T02:54:32;96556.16;;;15.16;64.70
55263;BME280;41125;48.752;9.168;2022-09-09T02:56:08;96556.66;;;15.09;65.58
55263;BME280;41125;48.752;9.168;2022-09-09T02:56:43;96552.97;;;15.05;66.06
55263;BME280;41125;48.752;9.168;2022-09-09T02:57:22;96558.28;;;15.01;65.51
55263;BME280;41125;48.752;9.168;2022-09-09T02:57:59;96555.56;;;15.01;65.59
55263;BME280;41125;48.752;9.168;2022-09-09T02:58:34;96555.91;;;15.00;65.83
55263;BME280;41125;48.752;9.168;2022-09-09T02:59:05;96553.16;;;15.00;65.83
55263;BME280;41125;48.752;9.168;2022-09-09T02:59:37;96551.56;;;14.99;65.91
55263;BME280;41125;48.752;9.168;2022-09-09T03:00:08;96556.50;;;15.05;65.25
55263;BME280;41125;48.752;9.168;2022-09-09T03:00:43;96548.13;;;15.11;65.09
55263;BME280;41125;48.752;9.168;2022-09-09T03:01:14;96547.34;;;15.10;65.09
55263;BME280;41125;48.752;9.168;2022-09-09T03:01:45;96546.53;;;15.09;65.26
55263;BME280;41125;48.752;9.168;2022-09-09T03:02:21;96548.94;;;15.11;65.19
55263;BME280;41125;48.752;9.168;2022-09-09T03:02:52;96542.53;;;15.07;65.37
55263;BME280;41125;48.752;9.168;2022-09-09T03:03:23;96539.31;;;15.05;65.67
55263;BME280;41125;48.752;9.168;2022-09-09T03:03:54;96536.78;;;15.00;66.07
55263;BME280;41125;48.752;9.168;2022-09-09T03:04:28;96540.16;;;14.97;65.96
55263;BME280;41125;48.752;9.168;2022-09-09T03:05:00;96538.09;;;14.94;66.53
55263;BME280;41125;48.752;9.168;2022-09-09T03:05:31;96535.69;;;14.92;66.07
55263;BME280;41125;48.752;9.168;2022-09-09T03:06:02;96535.19;;;14.90;66.48
55263;BME280;41125;48.752;9.168;2022-09-09T03:06:33;96534.44;;;14.90;66.27
55263;BME280;41125;48.752;9.168;2022-09-09T03:07:04;96534.75;;;14.88;66.36
55263;BME280;41125;48.752;9.168;2022-09-09T03:07:35;96540.22;;;14.88;66.58
55263;BME280;41125;48.752;9.168;2022-09-09T03:08:06;96538.28;;;14.89;66.43
55263;BME280;41125;48.752;9.168;2022-09-09T03:08:37;96532.03;;;14.88;66.15
55263;BME280;41125;48.752;9.168;2022-09-09T03:09:08;96543.75;;;14.89;66.29
55263;BME280;41125;48.752;9.168;2022-09-09T03:09:40;96540.22;;;14.88;66.15
55263;BME280;41125;48.752;9.168;2022-09-09T03:10:12;96545.69;;;14.88;66.31
55263;BME280;41125;48.752;9.168;2022-09-09T03:10:44;96550.34;;;14.88;66.23
55263;BME280;41125;48.752;9.168;2022-09-09T03:11:16;96547.41;;;14.93;66.30
55263;BME280;41125;48.752;9.168;2022-09-09T03:11:47;96550.63;;;14.95;66.04
55263;BME280;41125;48.752;9.168;2022-09-09T03:12:18;96547.06;;;14.94;65.71
55263;BME280;41125;48.752;9.168;2022-09-09T03:12:48;96544.34;;;14.94;66.07
55263;BME280;41125;48.752;9.168;2022-09-09T03:13:20;96546.28;;;14.94;66.33
55263;BME280;41125;48.752;9.168;2022-09-09T03:13:53;96539.22;;;14.93;65.76
55263;BME280;41125;48.752;9.168;2022-09-09T03:14:26;96548.53;;;14.92;66.17
55263;BME280;41125;48.752;9.168;2022-09-09T03:14:57;96539.69;;;14.95;66.38
55263;BME280;41125;48.752;9.168;2022-09-09T03:15:28;96546.09;;;14.99;65.60
55263;BME280;41125;48.752;9.168;2022-09-09T03:16:02;96547.22;;;14.98;65.60
55263;BME280;41125;48.752;9.168;2022-09-09T03:16:34;96543.69;;;14.97;65.86
55263;BME280;41125;48.752;9.168;2022-09-09T03:17:05;96546.75;;;14.96;65.72
55263;BME280;41125;48.752;9.168;2022-09-09T03:17:37;96554.16;;;14.95;66.15
55263;BME280;41125;48.752;9.168;2022-09-09T03:18:07;96556.87;;;14.95;66.12
55263;BME280;41125;48.752;9.168;2022-09-09T03:18:38;96561.53;;;14.95;66.27
55263;BME280;41125;48.752;9.168;2022-09-09T03:19:09;96550.63;;;14.95;66.19
55263;BME280;41125;48.752;9.168;2022-09-09T03:19:40;96550.63;;;14.95;66.33
55263;BME280;41125;48.752;9.168;2022-09-09T03:20:11;96550.63;;;14.95;66.30
55263;BME280;41125;48.752;9.168;2022-09-09T03:20:43;96552.22;;;14.96;66.17
55263;BME280;41125;48.752;9.168;2022-09-09T03:21:13;96553.00;;;14.96;66.04
55263;BME280;41125;48.752;9.168;2022-09-09T03:21:45;96549.94;;;14.98;66.17
55263;BME280;41125;48.752;9.168;2022-09-09T03:22:16;96554.28;;;14.99;65.93
55263;BME280;41125;48.752;9.168;2022-09-09T03:22:47;96552.38;;;14.99;66.16
55263;BME280;41125;48.752;9.168;2022-09-09T03:23:18;96548.81;;;14.99;65.86
55263;BME280;41125;48.752;9.168;2022-09-09T03:23:49;96551.56;;;14.99;66.34
55263;BME280;41125;48.752;9.168;2022-09-09T03:24:20;96548.81;;;14.99;66.52
55263;BME280;41125;48.752;9.168;2022-09-09T03:24:53;96546.75;;;14.96;66.54
55263;BME280;41125;48.752;9.168;2022-09-09T03:25:24;96539.69;;;14.95;66.47
55263;BME280;41125;48.752;9.168;2022-09-09T03:25:56;96550.63;;;14.95;66.23
55263;BME280;41125;48.752;9.168;2022-09-09T03:27:38;96546.75;;;14.96;65.57
55263;BME280;41125;48.752;9.168;2022-09-09T03:28:10;96556.06;;;14.95;65.58
55263;BME280;41125;48.752;9.168;2022-09-09T03:28:41;96547.41;;;14.93;65.65
55263;BME280;41125;48.752;9.168;2022-09-09T03:29:12;96550.81;;;14.90;65.77
55263;BME280;41125;48.752;9.168;2022-09-09T03:29:43;96557.06;;;14.90;65.55
55263;BME280;41125;48.752;9.168;2022-09-09T03:30:15;96552.22;;;14.96;65.48
55263;BME280;41125;48.752;9.168;2022-09-09T03:30:46;96546.75;;;14.96;65.39
55263;BME280;41125;48.752;9.168;2022-09-09T03:31:17;96553.34;;;14.95;65.57
55263;BME280;41125;48.752;9.168;2022-09-09T03:31:49;96549.34;;;14.92;65.42
55263;BME280;41125;48.752;9.168;2022-09-09T03:32:22;96545.16;;;14.95;65.47
55263;BME280;41125;48.752;9.168;2022-09-09T03:32:53;96551.25;;;14.92;65.80
55263;BME280;41125;48.752;9.168;2022-09-09T03:33:25;96544.88;;;14.88;65.88
55263;BME280;41125;48.752;9.168;2022-09-09T03:33:57;96547.94;;;14.86;65.93
55263;BME280;41125;48.752;9.168;2022-09-09T03:34:28;96544.75;;;14.84;66.01
55263;BME280;41125;48.752;9.168;2022-09-09T03:34:59;96550.84;;;14.81;65.83
55263;BME280;41125;48.752;9.168;2022-09-09T03:35:30;96547.97;;;14.78;66.22
55263;BME280;41125;48.752;9.168;2022-09-09T03:36:01;96549.75;;;14.73;66.39
55263;BME280;41125;48.752;9.168;2022-09-09T03:36:32;96548.94;;;14.73;66.58
55263;BME280;41125;48.752;9.168;2022-09-09T03:37:03;96548.16;;;14.72;66.20
55263;BME280;41125;48.752;9.168;2022-09-09T03:37:34;96553.63;;;14.72;66.39
55263;BME280;41125;48.752;9.168;2022-09-09T03:38:05;96544.16;;;14.70;66.09
55263;BME280;41125;48.752;9.168;2022-09-09T03:38:36;96543.34;;;14.69;66.29
55263;BME280;41125;48.752;9.168;2022-09-09T03:39:07;96544.94;;;14.70;66.35
55263;BME280;41125;48.752;9.168;2022-09-09T03:39:38;96547.34;;;14.72;66.46